Time;durP1;ratioP1;P1;durP2;ratioP2;P2;SDS_P1;SDS_P2;PMS_P1;PMS_P2;Temp;Humidity;BMP_temperature;BMP_pressure;BME280_temperature;BME280_humidity;BME280_pressure;Samples;Min_cycle;Max_cycle;Signal;HPM_P1;HPM_P2
2022/09/07 00:02:25;;;;;;;9.57;5.43;;;;;;;18.66;100.00;96223.06;5006015;28;20246;-77
2022/09/07 00:04:52;;;;;;;7.37;4.40;;;;;;;18.70;100.00;96211.31;5021686;28;20207;-77
2022/09/07 00:07:19;;;;;;;5.97;4.20;;;;;;;18.75;100.00;96218.63;5005207;28;20207;-77
2022/09/07 00:09:46;;;;;;;6.23;4.17;;;;;;;18.74;100.00;96225.19;5003195;28;20294;-77
2022/09/07 00:12:13;;;;;;;7.60;4.50;;;;;;;18.81;100.00;96226.50;5024825;28;20195;-76
2022/09/07 00:14:41;;;;;;;6.20;4.60;;;;;;;18.75;100.00;96219.44;5006375;28;20207;-76
2022/09/07 00:17:08;;;;;;;5.57;4.63;;;;;;;18.80;100.00;96233.09;5028054;28;20206;-77
2022/09/07 00:19:36;;;;;;;9.53;4.60;;;;;;;18.83;100.00;96227.06;5008379;28;20212;-77
2022/09/07 00:22:03;;;;;;;5.82;3.90;;;;;;;18.85;100.00;96222.13;5006612;28;20215;-77
2022/09/07 00:24:30;;;;;;;5.32;4.13;;;;;;;18.88;100.00;96218.78;5021796;28;20211;-77
2022/09/07 00:26:57;;;;;;;8.07;4.32;;;;;;;18.94;100.00;96229.72;5002690;28;20211;-77
2022/09/07 00:29:24;;;;;;;4.07;3.63;;;;;;;18.91;100.00;96236.56;5010060;28;20204;-77
2022/09/07 00:31:53;;;;;;;8.63;4.60;;;;;;;18.85;100.00;96241.28;5011752;28;20199;-77
2022/09/07 00:34:20;;;;;;;10.85;4.80;;;;;;;18.86;100.00;96245.66;5024998;28;20203;-77
2022/09/07 00:36:47;;;;;;;6.35;4.30;;;;;;;18.84;100.00;96242.38;5013599;28;20207;-76
2022/09/07 00:39:14;;;;;;;9.82;5.50;;;;;;;18.80;100.00;96249.50;5008422;28;20236;-77
2022/09/07 00:41:41;;;;;;;8.93;4.78;;;;;;;18.71;100.00;96240.28;5005029;28;20215;-77
2022/09/07 00:44:46;;;;;;;7.20;5.00;;;;;;;18.72;100.00;96257.50;5004606;28;20220;-77
2022/09/07 00:47:20;;;;;;;6.72;5.28;;;;;;;18.70;100.00;96257.78;5008593;28;20210;-77
2022/09/07 00:49:51;;;;;;;9.50;5.43;;;;;;;18.66;100.00;96261.38;5004543;28;20204;-77
2022/09/07 00:52:20;;;;;;;9.10;5.60;;;;;;;18.66;100.00;96270.38;5000596;28;20283;-77
2022/09/07 00:54:51;;;;;;;7.22;5.20;;;;;;;18.66;100.00;96267.66;5006653;28;20207;-77
2022/09/07 00:57:19;;;;;;;9.07;5.38;;;;;;;18.60;100.00;96260.59;5020407;28;20276;-77
2022/09/07 00:59:49;;;;;;;8.35;5.28;;;;;;;18.66;100.00;96267.66;5005193;28;20192;-77
2022/09/07 01:02:18;;;;;;;8.52;5.18;;;;;;;18.63;100.00;96270.94;5026797;28;20226;-77
2022/09/07 01:04:48;;;;;;;9.30;5.38;;;;;;;18.54;100.00;96272.63;5024090;28;20214;-77
2022/09/07 01:07:15;;;;;;;6.95;4.95;;;;;;;18.56;100.00;96264.94;5004962;28;20405;-77
2022/09/07 01:09:45;;;;;;;8.73;4.75;;;;;;;18.54;100.00;96262.50;5019596;28;20207;-77
2022/09/07 01:12:12;;;;;;;6.72;4.65;;;;;;;18.59;100.00;96253.47;5022026;28;20295;-77
2022/09/07 01:14:42;;;;;;;6.50;5.03;;;;;;;18.60;100.00;96260.59;5019244;28;20218;-77
2022/09/07 01:17:17;;;;;;;9.07;4.72;;;;;;;18.71;100.00;96269.56;5009166;28;20204;-77
2022/09/07 01:20:20;;;;;;;4.93;4.38;;;;;;;18.72;100.00;96254.75;5024188;28;20280;-76
2022/09/07 01:23:34;;;;;;;9.20;4.57;;;;;;;18.71;100.00;96255.88;5017088;28;20277;-77
2022/09/07 01:26:25;;;;;;;6.13;3.83;;;;;;;18.70;100.00;96262.44;5007005;28;20204;-77
2022/09/07 01:28:59;;;;;;;4.85;4.35;;;;;;;18.63;100.00;96254.53;5002392;28;20386;-77
2022/09/07 01:31:37;;;;;;;6.10;4.57;;;;;;;18.57;100.00;96258.41;5010808;28;20292;-77
2022/09/07 01:34:11;;;;;;;10.10;4.90;;;;;;;18.55;100.00;96246.91;5023217;28;20266;-76
2022/09/07 01:36:48;;;;;;;6.07;4.80;;;;;;;18.57;100.00;96250.22;5004023;28;20210;-77
2022/09/07 01:39:17;;;;;;;7.90;4.60;;;;;;;18.59;100.00;96252.66;5023009;28;20241;-77
2022/09/07 01:41:52;;;;;;;5.33;4.67;;;;;;;18.58;100.00;96249.09;5004359;28;20207;-77
2022/09/07 01:44:25;;;;;;;8.63;4.37;;;;;;;18.49;100.00;96240.66;4999343;28;20218;-77
2022/09/07 01:47:00;;;;;;;7.50;4.60;;;;;;;18.48;100.00;96246.41;5000602;28;20234;-77
2022/09/07 01:49:31;;;;;;;4.87;3.97;;;;;;;18.49;100.00;96248.03;5015671;28;20306;-77
2022/09/07 01:52:04;;;;;;;6.60;4.23;;;;;;;18.53;100.00;96247.22;5003399;28;20218;-77
2022/09/07 01:54:35;;;;;;;9.37;4.10;;;;;;;18.51;100.00;96259.53;5004966;28;20350;-77
2022/09/07 01:57:07;;;;;;;6.00;4.17;;;;;;;18.50;100.00;96257.88;5004671;28;20241;-77
2022/09/07 01:59:41;;;;;;;4.85;4.20;;;;;;;18.50;100.00;96261.44;5021205;28;20258;-77
2022/09/07 02:02:11;;;;;;;6.03;3.87;;;;;;;18.48;100.00;96262.81;5023318;28;20227;-77
2022/09/07 02:04:43;;;;;;;4.83;3.90;;;;;;;18.55;100.00;96263.31;5022704;28;20204;-77
2022/09/07 02:07:15;;;;;;;6.57;3.83;;;;;;;18.51;100.00;96263.06;5018049;28;20203;-77
2022/09/07 02:09:49;;;;;;;7.10;4.13;;;;;;;18.55;100.00;96268.78;5002411;28;20218;-77
2022/09/07 02:12:20;;;;;;;8.73;4.07;;;;;;;18.52;100.00;96258.41;5022183;28;20218;-77
2022/09/07 02:14:53;;;;;;;5.70;3.70;;;;;;;18.58;100.00;96256.50;5005915;28;20203;-77
2022/09/07 02:17:24;;;;;;;7.60;3.97;;;;;;;18.49;100.00;96254.31;5010720;28;20213;-77
2022/09/07 02:19:54;;;;;;;6.60;3.97;;;;;;;18.41;100.00;96251.38;5027026;28;20302;-77
2022/09/07 02:22:26;;;;;;;7.27;4.03;;;;;;;18.35;100.00;96253.31;4991893;28;20228;-77
2022/09/07 02:24:57;;;;;;;9.43;3.80;;;;;;;18.29;100.00;96259.91;4998912;28;20287;-77
2022/09/07 02:27:32;;;;;;;8.33;3.20;;;;;;;18.30;100.00;96258.81;5000757;28;20219;-77
2022/09/07 02:30:00;;;;;;;5.43;3.50;;;;;;;18.18;100.00;96252.03;5017925;28;20221;-77
2022/09/07 02:32:28;;;;;;;5.43;2.90;;;;;;;18.06;100.00;96253.19;5011739;28;20211;-77
2022/09/07 02:34:55;;;;;;;6.43;3.17;;;;;;;18.03;100.00;96263.88;5018054;28;20208;-76
2022/09/07 02:37:23;;;;;;;5.23;2.87;;;;;;;18.05;100.00;96273.41;5005429;28;20219;-76
2022/09/07 02:39:50;;;;;;;3.83;2.77;;;;;;;17.92;100.00;96263.09;5004340;28;20485;-77
2022/09/07 02:42:17;;;;;;;3.43;2.50;;;;;;;17.93;100.00;96270.19;5018907;28;20259;-76
2022/09/07 02:44:45;;;;;;;3.10;2.43;;;;;;;18.02;100.00;96279.44;5007101;28;20212;-76
2022/09/07 02:47:31;;;;;;;4.50;2.50;;;;;;;17.97;100.00;96284.91;5005346;28;20219;-76
2022/09/07 02:50:17;;;;;;;6.83;2.53;;;;;;;18.00;100.00;96280.81;4996659;28;20310;-76
2022/09/07 02:52:54;;;;;;;4.23;2.53;;;;;;;17.95;100.00;96281.63;5004439;28;20269;-76
2022/09/07 02:55:32;;;;;;;4.57;2.70;;;;;;;17.91;100.00;96279.75;5001119;28;20207;-76
2022/09/07 02:58:11;;;;;;;4.90;3.33;;;;;;;17.83;100.00;96270.22;5024317;28;20227;-76
2022/09/07 03:00:45;;;;;;;6.23;2.83;;;;;;;17.79;100.00;96271.84;5000474;28;20208;-76
2022/09/07 03:03:23;;;;;;;4.83;3.10;;;;;;;17.84;100.00;96269.13;5018309;28;20226;-76
2022/09/07 03:05:55;;;;;;;4.40;3.07;;;;;;;17.83;100.00;96270.22;5019592;28;20195;-76
2022/09/07 03:08:26;;;;;;;3.07;2.37;;;;;;;17.76;100.00;96264.22;5009095;28;20223;-76
2022/09/07 03:10:54;;;;;;;3.17;2.73;;;;;;;17.76;100.00;96272.44;5020612;28;20208;-76
2022/09/07 03:13:22;;;;;;;2.90;2.53;;;;;;;17.73;100.00;96272.97;5007517;28;20222;-76
2022/09/07 03:15:49;;;;;;;5.53;3.60;;;;;;;17.72;100.00;96276.78;5019360;28;20214;-76
2022/09/07 03:18:18;;;;;;;4.20;2.60;;;;;;;17.68;100.00;96276.53;5010417;28;20253;-76
2022/09/07 03:20:45;;;;;;;5.57;3.33;;;;;;;17.70;100.00;96268.03;5005049;28;20196;-76
2022/09/07 03:23:12;;;;;;;3.80;2.30;;;;;;;17.64;100.00;96271.91;5006674;28;20214;-76
2022/09/07 03:25:39;;;;;;;2.93;2.03;;;;;;;17.71;100.00;96275.16;5006316;28;20238;-76
2022/09/07 03:28:07;;;;;;;4.10;2.30;;;;;;;17.73;100.00;96283.88;5022551;28;20203;-76
2022/09/07 03:30:33;;;;;;;4.77;2.30;;;;;;;17.66;100.00;96294.28;5020682;28;20210;-76
2022/09/07 03:33:00;;;;;;;8.53;2.50;;;;;;;17.70;100.00;96295.34;5004601;28;20203;-76
2022/09/07 03:35:29;;;;;;;2.20;1.83;;;;;;;17.63;100.00;96298.38;5014084;28;20222;-76
2022/09/07 03:37:56;;;;;;;2.87;2.43;;;;;;;17.54;100.00;96304.63;5021619;28;20199;-76
2022/09/07 03:40:24;;;;;;;4.63;2.63;;;;;;;17.49;100.00;96307.38;5004192;28;20230;-76
2022/09/07 03:42:51;;;;;;;3.70;2.60;;;;;;;17.54;100.00;96307.38;5008089;28;20269;-76
2022/09/07 03:45:19;;;;;;;3.87;2.60;;;;;;;17.54;100.00;96293.72;5015164;28;20299;-76
2022/09/07 03:47:45;;;;;;;3.13;2.37;;;;;;;17.58;100.00;96300.28;5018011;28;20203;-76
2022/09/07 03:50:13;;;;;;;4.30;2.70;;;;;;;17.62;100.00;96304.94;5007420;28;20222;-76
2022/09/07 03:52:41;;;;;;;3.57;2.50;;;;;;;17.54;100.00;96301.91;5020570;28;20207;-76
2022/09/07 03:55:09;;;;;;;3.93;2.50;;;;;;;17.43;100.00;96300.31;5005023;28;20222;-76
2022/09/07 03:57:36;;;;;;;3.20;2.70;;;;;;;17.39;100.00;96300.03;5007288;28;20230;-76
2022/09/07 04:00:04;;;;;;;4.73;3.07;;;;;;;17.39;100.00;96297.28;5005802;28;20254;-76
2022/09/07 04:02:39;;;;;;;2.83;2.60;;;;;;;17.35;100.00;96302.47;5007484;28;20271;-76
2022/09/07 04:05:06;;;;;;;3.17;2.83;;;;;;;17.42;100.00;96304.94;5004623;28;20200;-76
2022/09/07 04:07:34;;;;;;;4.03;2.87;;;;;;;17.44;100.00;96304.69;5015876;28;20215;-76
2022/09/07 04:10:02;;;;;;;5.77;2.67;;;;;;;17.47;100.00;96304.09;5019998;28;20226;-76
2022/09/07 04:12:29;;;;;;;4.23;2.80;;;;;;;17.45;100.00;96301.66;5023074;28;20262;-76
2022/09/07 04:14:56;;;;;;;3.00;2.43;;;;;;;17.39;100.00;96289.94;5023222;28;20196;-76
2022/09/07 04:17:23;;;;;;;4.57;2.53;;;;;;;17.31;100.00;96285.03;5003753;28;20199;-76
2022/09/07 04:19:51;;;;;;;7.30;2.97;;;;;;;17.27;100.00;96296.75;5019832;28;20330;-76
2022/09/07 04:22:18;;;;;;;5.67;2.90;;;;;;;17.20;100.00;96288.84;5007161;28;20262;-76
2022/09/07 04:24:45;;;;;;;3.07;2.77;;;;;;;17.18;100.00;96276.59;5026376;28;20227;-76
2022/09/07 04:27:13;;;;;;;4.93;2.93;;;;;;;17.18;100.00;96288.28;5027559;28;20294;-76
2022/09/07 04:29:40;;;;;;;5.93;2.70;;;;;;;17.21;100.00;96290.47;5004929;28;20216;-76
2022/09/07 04:32:07;;;;;;;4.80;3.37;;;;;;;17.20;100.00;96299.75;5005241;28;20208;-76
2022/09/07 04:34:34;;;;;;;6.20;2.97;;;;;;;17.25;100.00;96305.22;5023239;28;20200;-76
2022/09/07 04:37:01;;;;;;;3.50;3.20;;;;;;;17.19;100.00;96300.03;5006562;28;20235;-76
2022/09/07 04:39:28;;;;;;;3.40;3.10;;;;;;;17.14;100.00;96289.94;5016967;28;20239;-76
2022/09/07 04:41:55;;;;;;;5.17;3.80;;;;;;;17.12;100.00;96288.56;5022768;28;20207;-76
2022/09/07 04:44:24;;;;;;;4.80;3.60;;;;;;;17.19;100.00;96298.13;5009433;28;20215;-76
2022/09/07 04:46:51;;;;;;;3.50;3.20;;;;;;;17.23;100.00;96293.75;5026056;28;20258;-76
2022/09/07 04:49:19;;;;;;;5.40;3.50;;;;;;;17.20;100.00;96291.56;5005443;28;20200;-76
2022/09/07 04:51:46;;;;;;;3.07;2.67;;;;;;;17.21;100.00;96295.94;5019970;28;20212;-76
2022/09/07 04:54:13;;;;;;;3.63;2.63;;;;;;;17.26;100.00;96295.13;5011865;28;20220;-76
2022/09/07 04:56:40;;;;;;;4.00;2.90;;;;;;;17.27;100.00;96292.09;5007718;28;20327;-76
2022/09/07 04:59:07;;;;;;;4.63;2.83;;;;;;;17.27;100.00;96296.75;5004165;28;20207;-76
2022/09/07 05:01:35;;;;;;;6.70;3.47;;;;;;;17.28;100.00;96298.38;5002811;28;20243;-76
2022/09/07 05:04:03;;;;;;;3.17;2.63;;;;;;;17.27;100.00;96308.47;5016058;28;20219;-77
2022/09/07 05:06:30;;;;;;;6.43;3.00;;;;;;;17.26;100.00;96312.31;5007568;28;20203;-76
2022/09/07 05:08:59;;;;;;;3.13;2.60;;;;;;;17.25;100.00;96307.97;5024276;28;20214;-77
2022/09/07 05:11:27;;;;;;;3.40;2.53;;;;;;;17.23;100.00;96306.59;5022056;28;20219;-77
2022/09/07 05:13:55;;;;;;;7.33;3.60;;;;;;;17.24;100.00;96298.13;5003196;28;20203;-77
2022/09/07 05:16:24;;;;;;;4.93;3.60;;;;;;;17.27;100.00;96308.47;5011278;28;20216;-76
2022/09/07 05:18:54;;;;;;;6.77;3.10;;;;;;;17.26;100.00;96316.97;5006713;28;20208;-76
2022/09/07 05:21:24;;;;;;;3.20;2.90;;;;;;;17.27;100.00;96307.66;5004312;28;20206;-76
2022/09/07 05:23:52;;;;;;;5.03;3.47;;;;;;;17.20;100.00;96318.84;5032760;28;20223;-76
2022/09/07 05:26:21;;;;;;;3.90;3.27;;;;;;;17.21;100.00;96322.41;5003963;28;20226;-76
2022/09/07 05:28:48;;;;;;;4.03;3.53;;;;;;;17.21;100.00;96323.22;5019566;28;20199;-76
2022/09/07 05:31:17;;;;;;;4.93;2.77;;;;;;;17.20;100.00;96315.31;5002979;28;20208;-76
2022/09/07 05:33:45;;;;;;;4.73;3.00;;;;;;;17.17;100.00;96324.88;5022746;28;20209;-76
2022/09/07 05:36:14;;;;;;;4.40;3.13;;;;;;;17.17;100.00;96318.59;5003027;28;20234;-76
2022/09/07 05:38:41;;;;;;;4.43;3.00;;;;;;;17.18;100.00;96321.03;5005487;28;20215;-76
2022/09/07 05:41:12;;;;;;;4.53;2.83;;;;;;;17.27;100.00;96313.94;5024241;28;20211;-76
2022/09/07 05:43:40;;;;;;;3.60;3.00;;;;;;;17.33;100.00;96310.13;5004204;28;20313;-76
2022/09/07 05:46:08;;;;;;;6.47;3.20;;;;;;;17.31;100.00;96315.03;5001317;28;20214;-76
2022/09/07 05:48:35;;;;;;;8.93;4.07;;;;;;;17.30;100.00;96293.47;5007036;28;20211;-77
2022/09/07 05:51:02;;;;;;;6.33;3.70;;;;;;;17.33;100.00;96299.22;5003497;28;20210;-76
2022/09/07 05:53:33;;;;;;;4.00;3.60;;;;;;;17.35;100.00;96310.66;5006370;28;20215;-76
2022/09/07 05:56:01;;;;;;;7.57;3.50;;;;;;;17.31;100.00;96325.97;5019234;28;20234;-76
2022/09/07 05:58:29;;;;;;;4.30;2.80;;;;;;;17.25;100.00;96321.59;5017474;28;20301;-76
2022/09/07 06:00:58;;;;;;;4.10;2.80;;;;;;;17.25;100.00;96320.78;5022592;28;20217;-76
2022/09/07 06:03:25;;;;;;;6.07;3.20;;;;;;;17.30;100.00;96324.31;5019764;28;20255;-76
2022/09/07 06:06:00;;;;;;;5.10;2.67;;;;;;;17.29;100.00;96317.22;5011761;28;20191;-76
2022/09/07 06:08:27;;;;;;;3.43;2.60;;;;;;;17.37;100.00;96319.41;5016761;28;20546;-76
2022/09/07 06:10:55;;;;;;;4.50;2.40;;;;;;;17.35;100.00;96321.56;5005887;28;20215;-76
2022/09/07 06:13:23;;;;;;;6.13;2.30;;;;;;;17.35;100.00;96327.03;5005117;28;20206;-76
2022/09/07 06:15:49;;;;;;;3.90;2.30;;;;;;;17.35;100.00;96337.94;5019206;28;20211;-77
2022/09/07 06:18:17;;;;;;;5.63;2.43;;;;;;;17.36;100.00;96339.59;5006092;28;20203;-77
2022/09/07 06:20:44;;;;;;;5.40;2.40;;;;;;;17.34;100.00;96341.81;5023760;28;20211;-76
2022/09/07 06:23:11;;;;;;;5.80;2.47;;;;;;;17.38;100.00;96344.78;5016886;28;20235;-77
2022/09/07 06:25:37;;;;;;;3.20;2.57;;;;;;;17.51;100.00;96340.69;5019882;28;20305;-76
2022/09/07 06:28:06;;;;;;;3.20;2.57;;;;;;;17.57;100.00;96348.59;5018382;28;20275;-76
2022/09/07 06:30:33;;;;;;;4.07;2.77;;;;;;;17.61;100.00;96327.84;4997844;28;20234;-76
2022/09/07 06:33:01;;;;;;;3.47;2.60;;;;;;;17.54;100.00;96327.28;5006542;28;20210;-76
2022/09/07 06:35:27;;;;;;;4.40;2.63;;;;;;;17.56;100.00;96329.75;5003301;28;20203;-76
2022/09/07 06:37:54;;;;;;;2.57;2.37;;;;;;;17.55;100.00;96341.78;5005479;28;20254;-76
2022/09/07 06:40:21;;;;;;;4.03;2.43;;;;;;;17.47;100.00;96347.78;5017300;28;20239;-76
2022/09/07 06:42:48;;;;;;;4.27;2.63;;;;;;;17.44;100.00;96346.41;5006606;28;20265;-76
2022/09/07 06:45:17;;;;;;;4.10;2.57;;;;;;;17.46;100.00;96348.88;5022390;28;20215;-77
2022/09/07 06:47:45;;;;;;;3.90;2.70;;;;;;;17.40;100.00;96345.34;5001460;28;20212;-76
2022/09/07 06:50:12;;;;;;;6.40;2.90;;;;;;;17.43;100.00;96338.53;5001615;28;20299;-76
2022/09/07 06:52:38;;;;;;;9.33;2.90;;;;;;;17.46;100.00;96349.69;5027536;28;20223;-76
2022/09/07 06:55:06;;;;;;;3.80;2.67;;;;;;;17.58;100.00;96349.44;5000996;28;20210;-76
2022/09/07 06:57:33;;;;;;;3.50;3.03;;;;;;;17.69;100.00;96337.44;4993893;28;20215;-77
2022/09/07 07:00:00;;;;;;;3.93;2.83;;;;;;;17.80;100.00;96338.22;4999690;28;20219;-76
2022/09/07 07:02:28;;;;;;;6.63;3.40;;;;;;;17.86;100.00;96340.69;5020581;28;20214;-76
2022/09/07 07:04:56;;;;;;;6.10;3.00;;;;;;;17.83;100.00;96337.69;5012240;28;20227;-76
2022/09/07 07:07:23;;;;;;;4.50;3.10;;;;;;;17.88;100.00;96330.28;5005686;28;20221;-76
2022/09/07 07:09:50;;;;;;;3.60;3.13;;;;;;;17.88;100.00;96330.28;5002248;28;20208;-76
2022/09/07 07:12:17;;;;;;;6.57;2.97;;;;;;;17.91;100.00;96326.19;4998952;28;20273;-77
2022/09/07 07:14:44;;;;;;;4.23;2.80;;;;;;;17.89;100.00;96326.44;5016964;28;20301;-77
2022/09/07 07:17:11;;;;;;;5.50;2.50;;;;;;;17.98;100.00;96324.78;5002225;28;20207;-77
2022/09/07 07:19:40;;;;;;;4.10;2.40;;;;;;;18.07;100.00;96334.06;4995478;28;20239;-77
2022/09/07 07:22:07;;;;;;;3.73;2.20;;;;;;;18.22;100.00;96335.09;5016881;28;20219;-77
2022/09/07 07:24:35;;;;;;;4.20;2.17;;;;;;;18.24;100.00;96341.94;5002032;28;20338;-76
2022/09/07 07:27:01;;;;;;;5.90;2.17;;;;;;;18.30;100.00;96335.34;5016005;28;20199;-77
2022/09/07 07:29:28;;;;;;;3.50;2.10;;;;;;;18.34;100.00;96333.69;5018232;28;20226;-77
2022/09/07 07:31:56;;;;;;;6.07;2.50;;;;;;;18.46;100.00;96330.63;5012388;28;20451;-77
2022/09/07 07:34:23;;;;;;;3.83;2.50;;;;;;;18.55;100.00;96345.34;5001283;28;20222;-76
2022/09/07 07:36:52;;;;;;;5.33;2.17;;;;;;;18.68;100.00;96338.47;5019768;28;20207;-77
2022/09/07 07:39:19;;;;;;;2.50;2.10;;;;;;;18.78;100.00;96333.78;5018281;28;20238;-77
2022/09/07 07:41:46;;;;;;;3.50;2.20;;;;;;;18.89;100.00;96323.56;5016950;28;20216;-77
2022/09/07 07:44:13;;;;;;;4.25;1.98;;;;;;;18.99;100.00;96319.97;5001955;28;20223;-77
2022/09/07 07:46:40;;;;;;;2.08;1.90;;;;;;;18.99;100.00;96317.22;4993043;28;20265;-77
2022/09/07 07:49:07;;;;;;;2.72;2.38;;;;;;;18.92;100.00;96312.06;5001787;28;20199;-77
2022/09/07 07:51:34;;;;;;;2.83;2.00;;;;;;;19.03;100.00;96318.31;5019052;28;20211;-76
2022/09/07 07:54:02;;;;;;;6.60;2.40;;;;;;;19.05;100.00;96318.84;5016954;28;20231;-77
2022/09/07 07:56:30;;;;;;;4.70;2.20;;;;;;;19.01;100.00;96312.28;5002716;28;20237;-77
2022/09/07 07:58:57;;;;;;;4.63;1.90;;;;;;;19.04;100.00;96309.00;5003506;28;20200;-76
2022/09/07 08:01:24;;;;;;;2.85;1.90;;;;;;;19.20;100.00;96319.53;5020720;28;20204;-76
2022/09/07 08:03:51;;;;;;;5.80;1.90;;;;;;;19.47;100.00;96323.72;5000419;28;20221;-76
2022/09/07 08:06:20;;;;;;;8.23;2.03;;;;;;;19.60;100.00;96325.78;5005905;28;20250;-76
2022/09/07 08:08:47;;;;;;;1.73;1.58;;;;;;;19.79;100.00;96323.97;5001944;28;20236;-76
2022/09/07 08:11:17;;;;;;;2.83;2.08;;;;;;;20.02;100.00;96325.09;5002137;28;20200;-78
2022/09/07 08:13:46;;;;;;;1.95;1.60;;;;;;;20.09;100.00;96325.56;4999311;28;20293;-78
2022/09/07 08:16:13;;;;;;;6.30;1.80;;;;;;;20.19;100.00;96319.97;5004295;28;20283;-78
2022/09/07 08:18:41;;;;;;;5.63;1.77;;;;;;;20.38;100.00;96307.16;5022811;28;20226;-78
2022/09/07 08:21:11;;;;;;;2.85;1.88;;;;;;;20.76;100.00;96309.94;5003993;28;20203;-78
2022/09/07 08:23:39;;;;;;;4.32;2.30;;;;;;;21.15;100.00;96315.16;5015683;28;20207;-79
2022/09/07 08:26:08;;;;;;;9.85;2.83;;;;;;;21.49;100.00;96309.41;5015334;28;20234;-76
2022/09/07 08:28:39;;;;;;;2.85;1.60;;;;;;;21.75;100.00;96307.84;4998422;28;20203;-76
2022/09/07 08:31:07;;;;;;;2.70;1.75;;;;;;;22.00;100.00;96305.78;5015103;28;20216;-77
2022/09/07 08:33:36;;;;;;;3.72;1.83;;;;;;;22.16;100.00;96298.88;4997830;28;20203;-77
2022/09/07 08:36:06;;;;;;;3.15;1.80;;;;;;;22.46;100.00;96295.47;5000138;28;20313;-77
2022/09/07 08:38:35;;;;;;;7.38;2.13;;;;;;;22.40;100.00;96288.47;4999749;28;20207;-77
2022/09/07 08:41:04;;;;;;;3.65;1.98;;;;;;;22.44;100.00;96283.16;4998297;28;20264;-77
2022/09/07 08:43:46;;;;;;;3.65;2.00;;;;;;;22.48;100.00;96278.66;4994642;28;20219;-76
2022/09/07 08:46:26;;;;;;;3.05;1.67;;;;;;;22.29;100.00;96278.78;5021906;28;20310;-77
2022/09/07 08:48:54;;;;;;;5.30;1.90;;;;;;;22.09;100.00;96279.22;4997531;28;20203;-77
2022/09/07 08:51:30;;;;;;;3.35;1.70;;;;;;;21.99;100.00;96282.97;5001338;28;20200;-76
2022/09/07 08:53:58;;;;;;;5.57;1.58;;;;;;;21.89;100.00;96281.19;5015210;28;20309;-76
2022/09/07 08:56:30;;;;;;;3.08;1.50;;;;;;;21.91;100.00;96267.16;5000144;28;20235;-76
2022/09/07 08:59:00;;;;;;;2.42;1.55;;;;;;;21.84;100.00;96262.06;4998509;28;20226;-76
2022/09/07 09:01:32;;;;;;;4.03;1.60;;;;;;;21.80;100.00;96265.69;5015061;28;20284;-76
2022/09/07 09:04:00;;;;;;;3.63;1.83;;;;;;;21.77;100.00;96267.16;4998987;28;20207;-76
2022/09/07 09:06:37;;;;;;;2.30;1.60;;;;;;;21.67;100.00;96264.56;5017682;28;20219;-76
2022/09/07 09:09:20;;;;;;;3.88;1.58;;;;;;;21.65;100.00;96257.75;5015705;28;20215;-77
2022/09/07 09:11:57;;;;;;;4.40;1.90;;;;;;;21.90;100.00;96258.09;4996938;28;20219;-76
2022/09/07 09:14:33;;;;;;;2.70;1.65;;;;;;;22.15;100.00;96244.97;4998378;28;20207;-76
2022/09/07 09:17:07;;;;;;;2.42;1.48;;;;;;;22.36;93.90;96240.69;5004018;28;20204;-76
2022/09/07 09:19:49;;;;;;;4.20;1.67;;;;;;;22.60;97.21;96233.00;5003531;28;20219;-76
2022/09/07 09:22:19;;;;;;;5.30;2.40;;;;;;;22.96;96.33;96234.97;5000571;28;20211;-76
2022/09/07 09:24:49;;;;;;;1.67;1.58;;;;;;;23.24;93.95;96239.22;5004507;28;20338;-76
2022/09/07 09:27:16;;;;;;;1.77;1.63;;;;;;;23.37;92.92;96241.09;5004349;28;20246;-76
2022/09/07 09:29:45;;;;;;;4.60;1.80;;;;;;;23.59;91.06;96233.94;5004239;28;20211;-76
2022/09/07 09:32:35;;;;;;;6.43;1.63;;;;;;;23.80;88.98;96229.53;5004568;28;20212;-76
2022/09/07 09:35:11;;;;;;;3.55;1.88;;;;;;;23.90;89.51;96231.19;5016466;28;20239;-76
2022/09/07 09:37:40;;;;;;;5.57;2.53;;;;;;;23.96;89.81;96222.44;5011400;28;20222;-76
2022/09/07 09:40:19;;;;;;;5.70;1.98;;;;;;;24.22;88.29;96219.00;5026045;28;20250;-76
2022/09/07 09:42:47;;;;;;;2.05;1.80;;;;;;;24.36;84.75;96212.22;5023653;28;20214;-76
2022/09/07 09:45:20;;;;;;;3.20;2.00;;;;;;;24.33;80.06;96203.78;5017766;28;20229;-76
2022/09/07 09:47:50;;;;;;;2.78;1.70;;;;;;;24.23;81.46;96193.03;5003822;28;20286;-76
2022/09/07 09:50:22;;;;;;;2.45;1.92;;;;;;;24.34;83.49;96183.31;5019821;28;20757;-76
2022/09/07 09:52:51;;;;;;;3.20;1.95;;;;;;;24.53;83.17;96181.06;5019995;28;20199;-76
2022/09/07 09:55:25;;;;;;;6.75;2.00;;;;;;;24.89;80.50;96178.81;5020484;28;20202;-76
2022/09/07 09:57:56;;;;;;;4.90;1.90;;;;;;;25.20;77.50;96183.34;5004923;28;20255;-76
2022/09/07 10:00:27;;;;;;;3.33;1.90;;;;;;;25.25;77.06;96174.91;5016952;28;20216;-76
2022/09/07 10:03:06;;;;;;;4.68;2.10;;;;;;;25.34;77.88;96164.63;5001098;28;20290;-76
2022/09/07 10:05:37;;;;;;;4.72;2.00;;;;;;;25.61;73.02;96164.22;5021737;28;20238;-75
2022/09/07 10:08:16;;;;;;;5.45;1.95;;;;;;;25.93;70.95;96156.47;5015399;28;20218;-75
2022/09/07 10:10:56;;;;;;;4.50;2.03;;;;;;;26.13;68.32;96147.41;5002192;28;20214;-75
2022/09/07 10:13:27;;;;;;;4.85;2.00;;;;;;;26.08;70.90;96142.06;5022175;28;20299;-75
2022/09/07 10:15:57;;;;;;;4.68;1.90;;;;;;;26.05;72.16;96142.72;5017965;28;20219;-75
2022/09/07 10:18:37;;;;;;;2.88;1.90;;;;;;;26.09;74.22;96142.88;5019105;28;20239;-75
2022/09/07 10:21:23;;;;;;;4.32;2.38;;;;;;;25.89;79.75;96138.91;5015795;28;20209;-75
2022/09/07 10:23:54;;;;;;;5.20;2.30;;;;;;;26.00;81.01;96131.84;4999396;28;20215;-75
2022/09/07 10:26:27;;;;;;;3.58;2.38;;;;;;;26.10;82.98;96134.25;5001340;28;20227;-76
2022/09/07 10:29:13;;;;;;;2.97;2.25;;;;;;;25.98;81.65;96128.59;5017380;28;20212;-76
2022/09/07 10:32:27;;;;;;;4.88;2.20;;;;;;;25.97;81.25;96121.44;5007700;28;20290;-76
2022/09/07 10:35:16;;;;;;;6.20;2.40;;;;;;;26.21;82.20;96113.31;4935484;28;20224;-76
2022/09/07 10:37:56;;;;;;;2.65;2.25;;;;;;;26.56;78.36;96096.47;4940040;28;20270;-76
2022/09/07 10:40:31;;;;;;;3.35;2.00;;;;;;;26.88;76.22;96092.91;4983818;28;20243;-76
2022/09/07 10:43:14;;;;;;;5.07;2.15;;;;;;;26.91;70.08;96089.50;5027018;28;20212;-76
2022/09/07 10:45:59;;;;;;;5.72;2.38;;;;;;;26.80;72.86;96091.03;5014751;28;20224;-76
2022/09/07 10:48:32;;;;;;;3.35;2.20;;;;;;;26.70;74.67;96085.94;4999624;28;20226;-76
2022/09/07 10:51:05;;;;;;;4.18;2.30;;;;;;;26.59;72.13;96073.66;4996385;28;20294;-76
2022/09/07 10:53:42;;;;;;;3.45;2.38;;;;;;;26.57;74.09;96078.72;5019904;28;20302;-76
2022/09/07 10:56:12;;;;;;;7.10;2.60;;;;;;;26.55;73.60;96075.47;5019318;28;20235;-76
2022/09/07 10:59:03;;;;;;;2.20;1.92;;;;;;;26.41;74.32;96070.22;5018377;28;20302;-76
2022/09/07 11:01:41;;;;;;;3.30;2.10;;;;;;;26.29;72.82;96070.97;5020559;28;20214;-76
2022/09/07 11:04:43;;;;;;;3.60;2.10;;;;;;;26.13;75.61;96063.56;5020825;28;20237;-76
2022/09/07 11:07:26;;;;;;;2.75;1.98;;;;;;;26.01;76.67;96053.25;5025171;28;20210;-77
2022/09/07 11:09:59;;;;;;;3.78;2.20;;;;;;;25.96;79.43;96047.91;5013406;28;20214;-76
2022/09/07 11:12:31;;;;;;;2.88;2.20;;;;;;;25.96;75.63;96048.72;5004857;28;20214;-76
2022/09/07 11:15:09;;;;;;;2.28;1.95;;;;;;;25.80;74.80;96053.22;5005392;28;20211;-76
2022/09/07 11:17:44;;;;;;;3.78;2.20;;;;;;;25.77;77.93;96053.91;5018739;28;20227;-76
2022/09/07 11:20:22;;;;;;;3.72;2.08;;;;;;;25.78;78.68;96049.16;4999156;28;20199;-76
2022/09/07 11:22:54;;;;;;;3.38;2.17;;;;;;;25.85;80.52;96043.91;5000341;28;20214;-75
2022/09/07 11:25:29;;;;;;;4.75;2.45;;;;;;;25.91;77.85;96042.56;5006637;28;20616;-75
2022/09/07 11:28:01;;;;;;;6.90;2.42;;;;;;;26.05;78.90;96048.66;5003423;28;20225;-75
2022/09/07 11:30:32;;;;;;;3.60;2.25;;;;;;;26.03;81.26;96037.09;5015123;28;20219;-75
2022/09/07 11:33:05;;;;;;;4.22;2.38;;;;;;;26.03;80.67;96044.63;5004698;28;20263;-75
2022/09/07 11:35:38;;;;;;;3.47;2.17;;;;;;;25.93;78.57;96045.81;5001358;28;20224;-75
2022/09/07 11:38:14;;;;;;;3.25;2.20;;;;;;;25.88;78.03;96035.75;5000222;28;20302;-75
2022/09/07 11:40:51;;;;;;;2.78;2.00;;;;;;;25.79;77.31;96039.72;5003449;28;20271;-75
2022/09/07 11:43:23;;;;;;;4.60;2.53;;;;;;;25.74;77.60;96026.91;5017008;28;20631;-75
2022/09/07 11:45:54;;;;;;;4.70;2.53;;;;;;;25.75;76.19;96028.53;5002037;28;20231;-75